createdAt,value
2023-04-03T00:01:44.249Z,102214.75
2023-04-03T00:04:13.694Z,102210.34
2023-04-03T00:06:43.058Z,102214.72
2023-04-03T00:09:12.612Z,102219.03
2023-04-03T00:11:41.684Z,102221.69
2023-04-03T00:14:12.538Z,102223.47
2023-04-03T00:16:41.673Z,102223.47
2023-04-03T00:19:12.889Z,102218.19
2023-04-03T00:21:42.341Z,102223.38
2023-04-03T00:24:11.760Z,102219.00
2023-04-03T00:26:40.869Z,102225.19
2023-04-03T00:29:11.616Z,102219.84
2023-04-03T00:31:41.132Z,102219.00
2023-04-03T00:34:11.158Z,102212.84
2023-04-03T00:36:40.442Z,102215.44
2023-04-03T00:39:09.832Z,102215.38
2023-04-03T00:41:38.883Z,102218.09
2023-04-03T00:44:45.041Z,102218.03
2023-04-03T00:47:16.988Z,102210.09
2023-04-03T00:49:47.760Z,102218.91
2023-04-03T00:52:21.397Z,102221.50
2023-04-03T00:54:54.425Z,102216.22
2023-04-03T00:57:24.951Z,102216.28
2023-04-03T00:59:59.830Z,102206.69
2023-04-03T01:02:29.043Z,102214.47
2023-04-03T01:04:58.662Z,102211.84
2023-04-03T01:07:32.478Z,102220.66
2023-04-03T01:10:04.503Z,102227.75
2023-04-03T01:12:36.436Z,102229.41
2023-04-03T01:15:10.131Z,102229.38
2023-04-03T01:17:41.487Z,102232.06
2023-04-03T01:20:43.289Z,102229.34
2023-04-03T01:23:32.826Z,102231.16
2023-04-03T01:26:02.423Z,102233.84
2023-04-03T01:28:35.032Z,102234.69
2023-04-03T01:31:18.360Z,102225.88
2023-04-03T01:33:51.117Z,102232.78
2023-04-03T01:36:25.473Z,102231.06
2023-04-03T01:38:55.948Z,102244.16
2023-04-03T01:41:26.740Z,102239.72
2023-04-03T01:44:01.156Z,102235.28
2023-04-03T01:46:30.640Z,102237.00
2023-04-03T01:49:01.221Z,102235.28
2023-04-03T01:51:31.604Z,102234.38
2023-04-03T01:54:00.665Z,102233.38
2023-04-03T01:56:30.913Z,102230.69
2023-04-03T01:59:00.183Z,102246.44
2023-04-03T02:01:29.582Z,102239.31
2023-04-03T02:04:00.253Z,102236.69
2023-04-03T02:06:29.712Z,102234.91
2023-04-03T02:08:58.802Z,102233.16
2023-04-03T02:11:28.278Z,102235.78
2023-04-03T02:13:57.449Z,102238.38
2023-04-03T02:16:27.234Z,102241.91
2023-04-03T02:18:56.381Z,102252.38
2023-04-03T02:21:27.349Z,102252.34
2023-04-03T02:23:56.759Z,102249.63
2023-04-03T02:26:27.276Z,102247.91
2023-04-03T02:28:56.387Z,102243.59
2023-04-03T02:31:25.864Z,102257.59
2023-04-03T02:33:55.455Z,102252.28
2023-04-03T02:36:27.064Z,102253.13
2023-04-03T02:39:01.203Z,102264.59
2023-04-03T02:41:35.990Z,102248.63
2023-04-03T02:44:09.243Z,102261.00
2023-04-03T02:46:38.770Z,102254.78
2023-04-03T02:49:08.303Z,102261.88
2023-04-03T02:51:39.206Z,102260.03
2023-04-03T02:54:09.497Z,102260.06
2023-04-03T02:56:41.885Z,102262.69
2023-04-03T02:59:11.242Z,102260.91
2023-04-03T03:01:42.582Z,102262.63
2023-04-03T03:04:11.773Z,102275.00
2023-04-03T03:06:43.667Z,102270.53
2023-04-03T03:09:14.169Z,102271.47
2023-04-03T03:11:46.026Z,102272.44
2023-04-03T03:14:15.186Z,102267.06
2023-04-03T03:16:44.522Z,102267.00
2023-04-03T03:19:14.074Z,102272.31
2023-04-03T03:21:45.034Z,102280.13
2023-04-03T03:24:14.254Z,102266.06
2023-04-03T03:26:43.583Z,102270.66
2023-04-03T03:29:12.632Z,102268.97
2023-04-03T03:31:42.057Z,102276.91
2023-04-03T03:34:11.275Z,102280.47
2023-04-03T03:36:41.930Z,102272.47
2023-04-03T03:39:12.743Z,102281.28
2023-04-03T03:41:42.260Z,102273.28
2023-04-03T03:44:11.665Z,102288.28
2023-04-03T03:46:41.128Z,102277.78
2023-04-03T03:49:10.932Z,102287.53
2023-04-03T03:51:40.853Z,102276.09
2023-04-03T03:54:11.846Z,102288.50
2023-04-03T03:56:42.230Z,102284.09
2023-04-03T03:59:13.252Z,102292.81
2023-04-03T04:01:43.171Z,102297.28
2023-04-03T04:04:12.542Z,102298.13
2023-04-03T04:06:42.214Z,102294.56
2023-04-03T04:09:15.104Z,102302.50
2023-04-03T04:11:44.553Z,102298.09
2023-04-03T04:14:14.873Z,102301.66
2023-04-03T04:16:45.879Z,102303.41
2023-04-03T04:19:19.468Z,102307.84
2023-04-03T04:21:49.272Z,102302.56
2023-04-03T04:24:20.242Z,102307.88
2023-04-03T04:26:51.690Z,102313.94
2023-04-03T04:29:22.713Z,102306.81
2023-04-03T04:31:54.181Z,102318.31
2023-04-03T04:34:25.001Z,102321.97
2023-04-03T04:36:54.979Z,102315.75
2023-04-03T04:39:25.890Z,102322.69
2023-04-03T04:41:56.283Z,102326.28
2023-04-03T04:44:26.317Z,102323.69
2023-04-03T04:46:56.467Z,102328.06
2023-04-03T04:49:25.897Z,102330.69
2023-04-03T04:51:55.991Z,102326.28
2023-04-03T04:54:31.926Z,102327.16
2023-04-03T04:57:01.669Z,102325.34
2023-04-03T04:59:32.001Z,102330.78
2023-04-03T05:02:02.278Z,102335.06
2023-04-03T05:04:32.061Z,102341.28
2023-04-03T05:07:07.872Z,102344.00
2023-04-03T05:09:43.164Z,102348.38
2023-04-03T05:12:14.175Z,102356.34
2023-04-03T05:14:49.884Z,102351.22
2023-04-03T05:17:19.699Z,102364.38
2023-04-03T05:19:52.949Z,102353.81
2023-04-03T05:22:24.632Z,102350.28
2023-04-03T05:24:58.591Z,102351.06
2023-04-03T05:27:29.431Z,102345.88
2023-04-03T05:30:00.824Z,102348.56
2023-04-03T05:32:30.846Z,102356.59
2023-04-03T05:35:14.225Z,102361.94
2023-04-03T05:37:45.452Z,102357.50
2023-04-03T05:40:18.580Z,102364.44
2023-04-03T05:42:50.928Z,102374.13
2023-04-03T05:45:22.136Z,102370.69
2023-04-03T05:47:51.796Z,102374.34
2023-04-03T05:50:21.155Z,102366.41
2023-04-03T05:52:59.252Z,102375.19
2023-04-03T05:55:32.326Z,102376.06
2023-04-03T05:58:02.453Z,102384.00
2023-04-03T06:00:31.669Z,102380.53
2023-04-03T06:03:04.952Z,102376.06
2023-04-03T06:05:34.525Z,102370.91
2023-04-03T06:08:04.111Z,102371.00
2023-04-03T06:10:35.063Z,102372.81
2023-04-03T06:13:05.866Z,102372.88
2023-04-03T06:15:35.037Z,102377.28
2023-04-03T06:18:04.680Z,102375.63
2023-04-03T06:20:33.991Z,102381.88
2023-04-03T06:23:03.497Z,102374.09
2023-04-03T06:25:34.766Z,102390.88
2023-04-03T06:28:04.209Z,102390.97
2023-04-03T06:30:33.368Z,102401.59
2023-04-03T06:33:02.894Z,102396.34
2023-04-03T06:35:32.228Z,102403.53
2023-04-03T06:38:02.003Z,102392.97
2023-04-03T06:40:31.428Z,102410.81
2023-04-03T06:43:02.505Z,102411.00
2023-04-03T06:45:31.642Z,102412.06
2023-04-03T06:48:01.529Z,102405.97
2023-04-03T06:50:30.698Z,102409.63
2023-04-03T06:53:00.189Z,102420.19
2023-04-03T06:55:29.344Z,102414.97
2023-04-03T06:58:01.641Z,102417.69
2023-04-03T07:00:31.152Z,102427.47
2023-04-03T07:03:02.033Z,102429.31
2023-04-03T07:05:31.767Z,102423.88
2023-04-03T07:08:00.956Z,102427.28
2023-04-03T07:10:30.057Z,102434.41
2023-04-03T07:12:59.556Z,102437.09
2023-04-03T07:15:30.898Z,102438.88
2023-04-03T07:18:00.361Z,102439.59
2023-04-03T07:20:29.488Z,102431.81
2023-04-03T07:22:59.090Z,102432.78
2023-04-03T07:25:28.288Z,102441.69
2023-04-03T07:27:57.939Z,102426.69
2023-04-03T07:30:27.399Z,102446.19
2023-04-03T07:32:58.219Z,102443.53
2023-04-03T07:35:27.492Z,102441.81
2023-04-03T07:37:56.893Z,102444.47
2023-04-03T07:40:25.926Z,102451.66
2023-04-03T07:42:56.061Z,102441.97
2023-04-03T07:45:24.996Z,102454.34
2023-04-03T07:47:54.903Z,102447.19
2023-04-03T07:50:25.854Z,102454.31
2023-04-03T07:52:58.700Z,102454.44
2023-04-03T07:55:28.044Z,102458.91
2023-04-03T07:57:57.712Z,102458.13
2023-04-03T08:00:27.243Z,102461.69
2023-04-03T08:02:57.127Z,102454.72
2023-04-03T08:05:27.720Z,102468.94
2023-04-03T08:07:57.242Z,102467.22
2023-04-03T08:10:26.426Z,102469.09
2023-04-03T08:12:55.764Z,102472.72
2023-04-03T08:15:25.583Z,102471.88
2023-04-03T08:17:55.141Z,102470.06
2023-04-03T08:20:24.682Z,102474.59
2023-04-03T08:22:55.563Z,102458.69
2023-04-03T08:25:25.143Z,102464.00
2023-04-03T08:27:54.348Z,102465.78
2023-04-03T08:30:23.390Z,102473.75
2023-04-03T08:32:52.968Z,102473.78
2023-04-03T08:35:22.138Z,102475.53
2023-04-03T08:37:51.543Z,102462.34
2023-04-03T08:40:22.392Z,102474.75
2023-04-03T08:43:04.661Z,102483.63
2023-04-03T08:45:44.817Z,102473.00
2023-04-03T08:48:18.033Z,102460.75
2023-04-03T08:50:53.075Z,102466.16
2023-04-03T08:53:25.683Z,102467.06
2023-04-03T08:55:57.231Z,102457.41
2023-04-03T08:58:29.275Z,102458.41
2023-04-03T09:01:02.661Z,102466.41
2023-04-03T09:03:33.914Z,102452.31
2023-04-03T09:06:05.905Z,102467.38
2023-04-03T09:08:39.399Z,102467.47
2023-04-03T09:11:21.705Z,102469.25
2023-04-03T09:13:57.039Z,102464.81
2023-04-03T09:16:38.081Z,102469.31
2023-04-03T09:19:19.176Z,102461.34
2023-04-03T09:21:48.845Z,102458.69
2023-04-03T09:24:19.607Z,102456.06
2023-04-03T09:26:56.196Z,102461.41
2023-04-03T09:29:27.306Z,102455.19
2023-04-03T09:32:01.834Z,102463.28
2023-04-03T09:34:35.260Z,102458.06
2023-04-03T09:37:07.110Z,102448.44
2023-04-03T09:39:54.650Z,102454.72
2023-04-03T09:42:27.416Z,102451.16
2023-04-03T09:44:58.931Z,102458.28
2023-04-03T09:47:30.375Z,102455.66
2023-04-03T09:50:24.156Z,102457.44
2023-04-03T09:52:54.434Z,102458.34
2023-04-03T09:55:28.648Z,102459.31
2023-04-03T09:58:02.449Z,102462.84
2023-04-03T10:00:38.639Z,102456.66
2023-04-03T10:03:25.943Z,102455.78
2023-04-03T10:05:56.688Z,102449.63
2023-04-03T10:08:28.582Z,102471.78
2023-04-03T10:11:17.045Z,102460.28
2023-04-03T10:14:00.652Z,102457.63
2023-04-03T10:16:39.051Z,102444.31
2023-04-03T10:19:32.204Z,102434.63
2023-04-03T10:22:06.026Z,102437.28
2023-04-03T10:24:44.257Z,102444.34
2023-04-03T10:27:19.935Z,102451.44
2023-04-03T10:29:57.689Z,102443.44
2023-04-03T10:32:51.395Z,102450.56
2023-04-03T10:35:36.370Z,102444.34
2023-04-03T10:38:13.571Z,102450.47
2023-04-03T10:40:53.958Z,102443.38
2023-04-03T10:43:34.735Z,102456.63
2023-04-03T10:46:09.482Z,102444.19
2023-04-03T10:48:56.498Z,102447.72
2023-04-03T10:51:35.281Z,102437.09
2023-04-03T10:54:14.025Z,102438.81
2023-04-03T10:56:47.732Z,102445.84
2023-04-03T10:59:31.832Z,102444.09
2023-04-03T11:02:06.740Z,102448.53
2023-04-03T11:04:41.501Z,102435.31
2023-04-03T11:07:17.161Z,102443.28
2023-04-03T11:09:49.371Z,102448.56
2023-04-03T11:12:27.325Z,102444.19
2023-04-03T11:14:58.891Z,102453.00
2023-04-03T11:17:39.857Z,102446.81
2023-04-03T11:20:18.783Z,102443.28
2023-04-03T11:22:53.083Z,102440.66
2023-04-03T11:25:25.731Z,102444.19
2023-04-03T11:27:59.133Z,102447.72
2023-04-03T11:30:34.931Z,102449.50
2023-04-03T11:33:31.306Z,102438.91
2023-04-03T11:36:12.555Z,102440.63
2023-04-03T11:38:54.029Z,102438.88
2023-04-03T11:41:29.970Z,102431.81
2023-04-03T11:44:01.731Z,102433.59
2023-04-03T11:46:58.031Z,102438.94
2023-04-03T11:49:54.932Z,102422.13
2023-04-03T11:53:02.173Z,102436.34
2023-04-03T11:55:57.784Z,102423.06
2023-04-03T11:58:29.215Z,102428.38
2023-04-03T12:01:01.217Z,102440.75
2023-04-03T12:04:03.506Z,102438.94
2023-04-03T12:07:15.922Z,102439.81
2023-04-03T12:10:30.921Z,102426.56
2023-04-03T12:13:19.926Z,102424.78
2023-04-03T12:16:01.472Z,102428.38
2023-04-03T12:18:59.660Z,102434.56
2023-04-03T12:22:08.492Z,102417.75
2023-04-03T12:24:40.158Z,102430.19
2023-04-03T12:27:27.313Z,102422.22
2023-04-03T12:30:04.182Z,102411.59
2023-04-03T12:32:56.256Z,102424.84
2023-04-03T12:35:36.895Z,102413.34
2023-04-03T12:39:00.393Z,102425.75
2023-04-03T12:41:40.798Z,102430.16
2023-04-03T12:44:38.171Z,102433.69
2023-04-03T12:47:29.399Z,102425.72
2023-04-03T12:49:59.783Z,102425.69
2023-04-03T12:52:37.453Z,102433.63
2023-04-03T12:55:19.034Z,102423.03
2023-04-03T12:57:48.605Z,102423.03
2023-04-03T13:00:36.166Z,102438.97
2023-04-03T13:03:07.644Z,102412.38
2023-04-03T13:05:38.263Z,102410.63
2023-04-03T13:08:12.039Z,102418.63
2023-04-03T13:10:54.313Z,102411.56
2023-04-03T13:13:24.293Z,102407.16
2023-04-03T13:15:56.248Z,102411.59
2023-04-03T13:18:28.875Z,102405.41
2023-04-03T13:21:05.710Z,102393.00
2023-04-03T13:23:37.342Z,102393.94
2023-04-03T13:26:08.434Z,102380.66
2023-04-03T13:28:38.779Z,102386.88
2023-04-03T13:31:21.322Z,102391.31
2023-04-03T13:33:59.153Z,102389.53
2023-04-03T13:36:33.170Z,102399.25
2023-04-03T13:39:05.165Z,102401.94
2023-04-03T13:41:37.677Z,102391.28
2023-04-03T13:44:28.343Z,102388.59
2023-04-03T13:47:01.361Z,102395.66
2023-04-03T13:49:37.114Z,102386.81
2023-04-03T13:52:26.010Z,102385.94
2023-04-03T13:54:57.453Z,102394.84
2023-04-03T13:57:27.570Z,102389.53
2023-04-03T13:59:56.724Z,102393.06
2023-04-03T14:02:34.305Z,102389.34
2023-04-03T14:05:09.288Z,102396.16
2023-04-03T14:07:39.862Z,102373.00
2023-04-03T14:10:09.288Z,102382.53
2023-04-03T14:12:41.798Z,102372.56
2023-04-03T14:15:20.992Z,102383.09
2023-04-03T14:17:53.438Z,102381.84
2023-04-03T14:20:25.710Z,102374.59
2023-04-03T14:22:56.263Z,102391.34
2023-04-03T14:25:26.769Z,102390.53
2023-04-03T14:27:57.214Z,102381.66
2023-04-03T14:30:29.005Z,102387.81
2023-04-03T14:33:00.759Z,102379.97
2023-04-03T14:35:30.098Z,102382.06
2023-04-03T14:37:59.491Z,102375.94
2023-04-03T14:40:29.675Z,102376.72
2023-04-03T14:42:59.345Z,102376.94
2023-04-03T14:45:29.025Z,102375.03
2023-04-03T14:48:01.329Z,102372.94
2023-04-03T14:50:30.948Z,102381.56
2023-04-03T14:53:00.715Z,102371.34
2023-04-03T14:55:30.470Z,102363.16
2023-04-03T14:58:00.045Z,102367.47
2023-04-03T15:00:29.341Z,102357.56
2023-04-03T15:03:00.546Z,102380.59
2023-04-03T15:05:29.824Z,102372.75
2023-04-03T15:08:01.666Z,102365.84
2023-04-03T15:10:33.999Z,102382.31
2023-04-03T15:13:04.186Z,102381.94
2023-04-03T15:15:34.680Z,102377.94
2023-04-03T15:18:05.954Z,102369.19
2023-04-03T15:20:35.186Z,102361.97
2023-04-03T15:23:05.424Z,102371.19
2023-04-03T15:25:35.944Z,102371.91
2023-04-03T15:28:10.527Z,102363.34
2023-04-03T15:30:42.534Z,102376.59
2023-04-03T15:33:13.578Z,102371.53
2023-04-03T15:35:43.983Z,102363.88
2023-04-03T15:38:13.760Z,102372.72
2023-04-03T15:40:43.577Z,102369.16
2023-04-03T15:43:13.418Z,102367.31
2023-04-03T15:45:43.909Z,102356.34
2023-04-03T15:48:15.467Z,102350.13
2023-04-03T15:50:45.013Z,102356.28
2023-04-03T15:53:14.452Z,102358.91
2023-04-03T15:55:44.966Z,102361.44
2023-04-03T15:58:14.472Z,102363.41
2023-04-03T16:00:43.689Z,102366.34
2023-04-03T16:03:17.436Z,102363.13
2023-04-03T16:05:47.553Z,102357.97
2023-04-03T16:08:18.765Z,102353.72
2023-04-03T16:10:48.347Z,102361.88
2023-04-03T16:13:17.885Z,102359.25
2023-04-03T16:15:47.155Z,102353.13
2023-04-03T16:18:19.543Z,102370.00
2023-04-03T16:20:49.516Z,102364.72
2023-04-03T16:23:19.715Z,102369.16
2023-04-03T16:25:50.769Z,102366.47
2023-04-03T16:28:21.889Z,102354.94
2023-04-03T16:30:51.519Z,102366.47
2023-04-03T16:33:23.144Z,102355.75
2023-04-03T16:35:53.089Z,102378.75
2023-04-03T16:38:23.302Z,102352.94
2023-04-03T16:40:53.436Z,102364.25
2023-04-03T16:43:23.508Z,102360.66
2023-04-03T16:45:52.446Z,102357.94
2023-04-03T16:48:23.507Z,102350.06
2023-04-03T16:50:54.328Z,102364.19
2023-04-03T16:53:24.944Z,102357.94
2023-04-03T16:55:54.840Z,102360.47
2023-04-03T16:58:24.199Z,102352.44
2023-04-03T17:00:54.681Z,102358.59
2023-04-03T17:03:26.851Z,102357.69
2023-04-03T17:05:56.265Z,102365.53
2023-04-03T17:08:25.620Z,102341.63
2023-04-03T17:10:56.042Z,102362.53
2023-04-03T17:13:32.052Z,102349.25
2023-04-03T17:16:03.980Z,102362.44
2023-04-03T17:18:36.368Z,102367.56
2023-04-03T17:21:06.816Z,102362.94
2023-04-03T17:23:38.453Z,102370.72
2023-04-03T17:26:08.088Z,102364.66
2023-04-03T17:28:37.490Z,102363.69
2023-04-03T17:31:07.766Z,102361.06
2023-04-03T17:33:39.069Z,102350.47
2023-04-03T17:36:08.929Z,102350.34
2023-04-03T17:38:39.142Z,102356.47
2023-04-03T17:41:10.365Z,102360.72
2023-04-03T17:43:39.844Z,102364.31
2023-04-03T17:46:11.671Z,102361.53
2023-04-03T17:48:43.383Z,102353.47
2023-04-03T17:51:14.761Z,102356.19
2023-04-03T17:53:47.479Z,102361.47
2023-04-03T17:56:20.056Z,102356.88
2023-04-03T17:58:50.058Z,102351.59
2023-04-03T18:01:21.790Z,102362.09
2023-04-03T18:03:56.205Z,102356.72
2023-04-03T18:06:30.212Z,102351.34
2023-04-03T18:09:06.783Z,102354.00
2023-04-03T18:11:37.139Z,102361.88
2023-04-03T18:14:08.702Z,102360.78
2023-04-03T18:16:38.410Z,102355.50
2023-04-03T18:19:22.013Z,102348.53
2023-04-03T18:21:53.639Z,102359.06
2023-04-03T18:24:25.036Z,102351.94
2023-04-03T18:26:59.824Z,102351.03
2023-04-03T18:29:33.298Z,102358.03
2023-04-03T18:32:05.136Z,102357.88
2023-04-03T18:34:36.621Z,102354.34
2023-04-03T18:37:06.357Z,102351.59
2023-04-03T18:39:36.279Z,102359.53
2023-04-03T18:42:09.465Z,102348.81
2023-04-03T18:44:42.840Z,102348.69
2023-04-03T18:47:12.674Z,102345.22
2023-04-03T18:49:44.066Z,102349.59
2023-04-03T18:52:16.694Z,102345.22
2023-04-03T18:54:51.202Z,102348.63
2023-04-03T18:57:20.849Z,102345.03
2023-04-03T18:59:54.769Z,102343.25
2023-04-03T19:02:26.039Z,102350.13
2023-04-03T19:04:57.407Z,102335.13
2023-04-03T19:07:26.861Z,102339.56
2023-04-03T19:09:57.254Z,102343.22
2023-04-03T19:12:26.748Z,102334.22
2023-04-03T19:14:56.398Z,102335.94
2023-04-03T19:17:25.853Z,102335.03
2023-04-03T19:19:56.720Z,102335.00
2023-04-03T19:22:26.317Z,102335.06
2023-04-03T19:24:56.057Z,102333.31
2023-04-03T19:27:25.201Z,102331.56
2023-04-03T19:29:54.622Z,102331.56
2023-04-03T19:32:24.811Z,102328.88
2023-04-03T19:34:54.612Z,102334.22
2023-04-03T19:37:26.786Z,102331.56
2023-04-03T19:39:56.601Z,102337.66
2023-04-03T19:42:28.487Z,102328.81
2023-04-03T19:44:58.889Z,102323.66
2023-04-03T19:47:28.929Z,102329.59
2023-04-03T19:49:58.327Z,102327.00
2023-04-03T19:52:28.948Z,102310.19
2023-04-03T19:54:58.680Z,102312.78
2023-04-03T19:57:28.237Z,102318.06
2023-04-03T19:59:57.473Z,102314.41
2023-04-03T20:02:27.184Z,102307.31
2023-04-03T20:04:57.804Z,102313.44
2023-04-03T20:07:28.850Z,102308.25
2023-04-03T20:10:00.006Z,102317.84
2023-04-03T20:12:29.569Z,102308.16
2023-04-03T20:15:00.346Z,102302.06
2023-04-03T20:17:30.613Z,102312.66
2023-04-03T20:20:06.985Z,102301.16
2023-04-03T20:22:41.794Z,102298.53
2023-04-03T20:25:23.685Z,102305.50
2023-04-03T20:28:05.366Z,102300.09
2023-04-03T20:30:38.869Z,102294.94
2023-04-03T20:33:10.183Z,102301.13
2023-04-03T20:35:41.766Z,102296.59
2023-04-03T20:38:15.458Z,102288.66
2023-04-03T20:40:45.763Z,102294.84
2023-04-03T20:43:17.438Z,102279.00
2023-04-03T20:45:48.467Z,102287.75
2023-04-03T20:48:18.712Z,102283.31
2023-04-03T20:50:53.384Z,102284.22
2023-04-03T20:53:25.307Z,102285.97
2023-04-03T20:56:01.409Z,102288.66
2023-04-03T20:58:35.174Z,102280.66
2023-04-03T21:01:13.458Z,102287.75
2023-04-03T21:03:43.273Z,102283.31
2023-04-03T21:06:50.972Z,102278.94
2023-04-03T21:09:57.913Z,102281.56
2023-04-03T21:13:04.520Z,102280.66
2023-04-03T21:15:49.081Z,102282.34
2023-04-03T21:18:35.997Z,102282.38
2023-04-03T21:21:05.967Z,102281.50
2023-04-03T21:23:35.495Z,102282.41
2023-04-03T21:26:04.576Z,102289.50
2023-04-03T21:28:34.111Z,102286.88
2023-04-03T21:31:03.210Z,102280.81
2023-04-03T21:33:34.616Z,102275.59
2023-04-03T21:36:07.717Z,102278.22
2023-04-03T21:38:40.709Z,102280.06
2023-04-03T21:41:10.045Z,102287.94
2023-04-03T21:43:39.393Z,102280.75
2023-04-03T21:46:08.760Z,102279.13
2023-04-03T21:48:39.557Z,102274.75
2023-04-03T21:51:08.857Z,102279.13
2023-04-03T21:53:38.801Z,102276.41
2023-04-03T21:56:08.710Z,102277.19
2023-04-03T21:58:38.170Z,102273.66
2023-04-03T22:01:11.831Z,102274.63
2023-04-03T22:03:43.810Z,102271.84
2023-04-03T22:06:14.112Z,102266.56
2023-04-03T22:08:44.233Z,102267.53
2023-04-03T22:11:15.046Z,102279.00
2023-04-03T22:13:45.517Z,102273.56
2023-04-03T22:16:14.820Z,102271.81
2023-04-03T22:18:45.639Z,102270.88
2023-04-03T22:21:14.710Z,102273.44
2023-04-03T22:23:44.234Z,102274.44
2023-04-03T22:26:14.674Z,102273.53
2023-04-03T22:28:46.096Z,102268.25
2023-04-03T22:31:17.052Z,102268.25
2023-04-03T22:33:48.055Z,102262.09
2023-04-03T22:36:17.272Z,102271.72
2023-04-03T22:38:46.815Z,102267.25
2023-04-03T22:41:15.968Z,102266.38
2023-04-03T22:43:45.372Z,102268.00
2023-04-03T22:46:14.822Z,102270.63
2023-04-03T22:48:45.329Z,102265.34
2023-04-03T22:51:16.081Z,102262.69
2023-04-03T22:53:45.389Z,102270.63
2023-04-03T22:56:14.519Z,102264.56
2023-04-03T22:58:44.892Z,102262.75
2023-04-03T23:01:15.931Z,102258.41
2023-04-03T23:03:45.546Z,102260.09
2023-04-03T23:06:15.945Z,102266.16
2023-04-03T23:08:45.468Z,102262.69
2023-04-03T23:11:14.556Z,102264.47
2023-04-03T23:13:44.312Z,102262.75
2023-04-03T23:16:13.839Z,102261.78
2023-04-03T23:18:43.790Z,102257.31
2023-04-03T23:21:12.952Z,102256.31
2023-04-03T23:23:43.716Z,102250.13
2023-04-03T23:26:12.935Z,102244.97
2023-04-03T23:28:42.799Z,102245.78
2023-04-03T23:31:11.941Z,102244.06
2023-04-03T23:33:43.936Z,102241.44
2023-04-03T23:36:15.948Z,102234.28
2023-04-03T23:38:46.914Z,102235.13
2023-04-03T23:41:16.216Z,102242.28
2023-04-03T23:43:47.547Z,102230.75
2023-04-03T23:46:17.060Z,102233.41
2023-04-03T23:48:46.456Z,102229.03
2023-04-03T23:51:15.651Z,102229.09
2023-04-03T23:53:46.399Z,102226.41
2023-04-03T23:56:15.569Z,102216.66
2023-04-03T23:58:44.959Z,102216.66
